Time;durP1;ratioP1;P1;durP2;ratioP2;P2;SDS_P1;SDS_P2;PMS_P1;PMS_P2;Temp;Humidity;BMP_temperature;BMP_pressure;BME280_temperature;BME280_humidity;BME280_pressure;Samples;Min_cycle;Max_cycle;Signal;HPM_P1;HPM_P2
2023/03/04 00:01:38;;;;;;;44.37;35.13;;;4.60;1.00;;;;;;5036514;28;20175;-41
2023/03/04 00:04:03;;;;;;;40.50;31.63;;;4.60;1.00;;;;;;5034866;28;20651;-41
2023/03/04 00:06:29;;;;;;;43.00;31.63;;;4.50;1.00;;;;;;5034538;28;20202;-40
2023/03/04 00:08:55;;;;;;;41.37;31.87;;;4.50;1.00;;;;;;5034066;28;20309;-42
2023/03/04 00:11:20;;;;;;;44.00;32.57;;;4.50;1.00;;;;;;5035102;28;20175;-41
2023/03/04 00:13:46;;;;;;;42.20;32.37;;;4.50;1.00;;;;;;5033888;28;20179;-42
2023/03/04 00:16:12;;;;;;;45.07;32.60;;;4.40;1.00;;;;;;5028900;28;20179;-42
2023/03/04 00:18:37;;;;;;;45.63;33.50;;;4.40;1.00;;;;;;5015999;28;20190;-41
2023/03/04 00:21:03;;;;;;;43.53;32.60;;;4.40;1.00;;;;;;5014821;28;20262;-40
2023/03/04 00:23:29;;;;;;;49.20;34.37;;;4.30;1.00;;;;;;5016724;28;20284;-40
2023/03/04 00:25:54;;;;;;;42.00;32.13;;;4.30;1.00;;;;;;5017302;28;20215;-41
2023/03/04 00:28:20;;;;;;;44.23;33.20;;;4.30;1.00;;;;;;5016868;28;20209;-40
2023/03/04 00:30:46;;;;;;;47.90;35.17;;;4.30;1.00;;;;;;5017412;28;20274;-40
2023/03/04 00:33:11;;;;;;;45.03;32.00;;;4.20;1.00;;;;;;5016406;28;20209;-41
2023/03/04 00:35:37;;;;;;;46.93;31.87;;;4.20;1.00;;;;;;5016089;28;20266;-43
2023/03/04 00:38:03;;;;;;;41.50;32.30;;;4.10;1.00;;;;;;5016547;28;20565;-42
2023/03/04 00:40:28;;;;;;;44.50;32.67;;;4.10;1.00;;;;;;5014964;28;20202;-41
2023/03/04 00:42:54;;;;;;;43.37;31.80;;;4.10;1.00;;;;;;5014718;28;20392;-40
2023/03/04 00:45:19;;;;;;;43.20;31.43;;;4.10;1.00;;;;;;5015110;28;20171;-42
2023/03/04 00:47:45;;;;;;;43.97;31.00;;;4.10;1.00;;;;;;5013337;28;20185;-42
2023/03/04 00:50:11;;;;;;;41.53;30.37;;;4.10;1.00;;;;;;5014733;28;20639;-42
2023/03/04 00:52:36;;;;;;;43.53;31.00;;;4.00;1.00;;;;;;5014417;28;20676;-41
2023/03/04 00:55:03;;;;;;;43.57;32.37;;;4.00;1.00;;;;;;5013654;28;20236;-41
2023/03/04 00:57:28;;;;;;;40.93;30.07;;;4.00;1.00;;;;;;5014782;28;20178;-41
2023/03/04 00:59:54;;;;;;;43.37;32.00;;;4.00;1.00;;;;;;5016265;28;20473;-42
2023/03/04 01:02:20;;;;;;;39.20;32.07;;;3.90;1.00;;;;;;5015183;28;20186;-39
2023/03/04 01:04:45;;;;;;;41.63;30.87;;;3.90;1.00;;;;;;5016074;28;20176;-42
2023/03/04 01:07:11;;;;;;;40.70;30.23;;;3.80;1.00;;;;;;5015874;28;20229;-42
2023/03/04 01:09:36;;;;;;;41.30;31.27;;;3.80;1.00;;;;;;5013123;28;20266;-41
2023/03/04 01:12:02;;;;;;;37.60;30.83;;;3.80;1.00;;;;;;5012257;28;20600;-42
2023/03/04 01:14:28;;;;;;;41.87;30.70;;;3.80;1.00;;;;;;5013129;28;20209;-41
2023/03/04 01:16:54;;;;;;;42.47;32.40;;;3.70;1.00;;;;;;5013563;28;20528;-41
2023/03/04 01:19:20;;;;;;;39.93;29.43;;;3.70;1.00;;;;;;5012929;28;20237;-41
2023/03/04 01:21:45;;;;;;;40.70;30.80;;;3.70;1.00;;;;;;5016788;28;20532;-42
2023/03/04 01:24:11;;;;;;;41.83;30.90;;;3.70;1.00;;;;;;5018113;28;20465;-42
2023/03/04 01:26:37;;;;;;;43.63;31.73;;;3.60;1.00;;;;;;5019090;28;20175;-44
2023/03/04 01:29:03;;;;;;;43.93;31.47;;;3.60;1.00;;;;;;5018201;28;20231;-43
2023/03/04 01:31:28;;;;;;;42.67;30.70;;;3.60;1.00;;;;;;5019055;28;20557;-41
2023/03/04 01:33:54;;;;;;;39.73;29.37;;;3.60;1.00;;;;;;5019805;28;20206;-43
2023/03/04 01:36:20;;;;;;;42.33;29.90;;;3.50;1.00;;;;;;5019245;28;20849;-40
2023/03/04 01:38:45;;;;;;;43.40;33.23;;;3.50;1.00;;;;;;5020018;28;20183;-41
2023/03/04 01:41:12;;;;;;;45.83;32.63;;;3.50;1.00;;;;;;5020352;28;20171;-42
2023/03/04 01:43:38;;;;;;;40.00;30.40;;;3.40;1.00;;;;;;5019716;28;20642;-41
2023/03/04 01:46:05;;;;;;;42.10;29.17;;;3.40;1.00;;;;;;5018801;28;20418;-41
2023/03/04 01:48:35;;;;;;;38.27;28.63;;;3.40;1.00;;;;;;5019358;28;20183;-41
2023/03/04 01:51:05;;;;;;;39.90;31.93;;;3.30;1.00;;;;;;5019874;28;20422;-42
2023/03/04 01:53:31;;;;;;;41.60;29.53;;;3.30;1.00;;;;;;5019242;28;20563;-43
2023/03/04 01:56:10;;;;;;;39.40;29.10;;;3.30;1.00;;;;;;5018769;28;20584;-43
2023/03/04 01:58:36;;;;;;;37.77;28.43;;;3.30;1.00;;;;;;5020101;28;20969;-42
2023/03/04 02:01:01;;;;;;;40.23;30.00;;;3.30;1.00;;;;;;5019786;28;20461;-42
2023/03/04 02:03:27;;;;;;;40.13;29.53;;;3.30;1.00;;;;;;5018987;28;20179;-41
2023/03/04 02:05:54;;;;;;;40.67;31.00;;;3.30;1.00;;;;;;5016413;28;20838;-42
2023/03/04 02:08:21;;;;;;;40.60;29.40;;;3.30;1.00;;;;;;5000492;28;20253;-41
2023/03/04 02:10:51;;;;;;;41.97;29.87;;;3.20;1.00;;;;;;5018543;28;20484;-40
2023/03/04 02:13:16;;;;;;;42.00;30.97;;;3.20;1.00;;;;;;5017555;28;20721;-42
2023/03/04 02:15:43;;;;;;;40.77;30.23;;;3.20;1.00;;;;;;5019196;28;20409;-42
2023/03/04 02:18:20;;;;;;;42.70;31.77;;;3.20;1.00;;;;;;5028827;28;20190;-41
2023/03/04 02:20:58;;;;;;;40.63;29.93;;;3.20;1.00;;;;;;5022790;28;20912;-41
2023/03/04 02:23:48;;;;;;;42.27;29.90;;;3.10;1.00;;;;;;5021075;28;20433;-41
2023/03/04 02:26:22;;;;;;;39.50;29.27;;;3.10;1.00;;;;;;5019820;28;20426;-41
2023/03/04 02:28:50;;;;;;;36.40;27.93;;;3.10;1.00;;;;;;5018681;28;20469;-41
2023/03/04 02:31:26;;;;;;;41.50;29.97;;;3.00;1.00;;;;;;5016821;28;20659;-42
2023/03/04 02:33:53;;;;;;;41.27;28.93;;;3.00;1.00;;;;;;5019848;28;20457;-42
2023/03/04 02:36:19;;;;;;;38.90;29.60;;;3.00;1.00;;;;;;5019651;28;20875;-42
2023/03/04 02:38:44;;;;;;;36.73;28.23;;;2.90;1.00;;;;;;5018574;28;20461;-41
2023/03/04 02:41:15;;;;;;;42.60;30.17;;;2.90;1.00;;;;;;5017111;28;20752;-41
2023/03/04 02:43:43;;;;;;;34.77;27.60;;;2.90;1.00;;;;;;5018111;28;20277;-41
2023/03/04 02:46:11;;;;;;;40.83;29.47;;;2.90;1.00;;;;;;5018374;28;20425;-43
2023/03/04 02:48:37;;;;;;;37.57;27.53;;;2.80;1.00;;;;;;5018996;28;20444;-42
2023/03/04 02:51:03;;;;;;;35.90;28.20;;;2.80;1.00;;;;;;5019050;28;20501;-42
2023/03/04 02:53:29;;;;;;;39.33;28.70;;;2.80;3.10;;;;;;5018978;28;20202;-41
2023/03/04 02:55:54;;;;;;;36.13;26.57;;;2.80;1.00;;;;;;5019738;28;20433;-42
2023/03/04 02:58:20;;;;;;;37.33;28.50;;;2.80;2.70;;;;;;5019563;28;20183;-41
2023/03/04 03:00:46;;;;;;;38.60;27.07;;;2.80;3.10;;;;;;5019664;28;20199;-43
2023/03/04 03:03:11;;;;;;;36.77;27.97;;;2.70;6.60;;;;;;5018288;28;20473;-44
2023/03/04 03:05:38;;;;;;;36.83;25.90;;;2.70;8.30;;;;;;5016495;28;20167;-42
2023/03/04 03:08:04;;;;;;;39.10;27.07;;;2.70;8.90;;;;;;5017830;28;20186;-42
2023/03/04 03:10:29;;;;;;;36.63;25.50;;;2.70;11.10;;;;;;5017486;28;20454;-41
2023/03/04 03:12:55;;;;;;;36.17;27.80;;;2.60;11.70;;;;;;5018799;28;20821;-43
2023/03/04 03:15:21;;;;;;;38.10;27.60;;;2.60;13.70;;;;;;5018297;28;20206;-40
2023/03/04 03:17:47;;;;;;;40.03;28.10;;;2.60;17.80;;;;;;5018348;28;20553;-41
2023/03/04 03:20:13;;;;;;;42.50;28.37;;;2.50;21.40;;;;;;5019282;28;20474;-39
2023/03/04 03:22:40;;;;;;;40.90;29.23;;;2.50;22.60;;;;;;5019355;28;20442;-41
2023/03/04 03:25:06;;;;;;;32.90;25.80;;;2.50;23.30;;;;;;5017625;28;20865;-42
2023/03/04 03:27:32;;;;;;;41.73;27.57;;;2.50;21.40;;;;;;5018665;28;20699;-42
2023/03/04 03:29:58;;;;;;;38.13;26.60;;;2.50;25.20;;;;;;5018819;28;20589;-42
2023/03/04 03:32:23;;;;;;;38.17;27.07;;;2.50;27.40;;;;;;5016237;28;20182;-43
2023/03/04 03:34:49;;;;;;;38.50;25.83;;;2.50;30.10;;;;;;5017513;28;20183;-42
2023/03/04 03:37:15;;;;;;;35.77;25.57;;;2.40;34.00;;;;;;5017145;28;20458;-41
2023/03/04 03:39:41;;;;;;;36.10;25.20;;;2.40;42.80;;;;;;5015794;28;20233;-41
2023/03/04 03:42:07;;;;;;;32.53;26.13;;;2.40;52.60;;;;;;5016151;28;20429;-41
2023/03/04 03:44:33;;;;;;;31.80;24.60;;;2.40;72.90;;;;;;5017447;28;20434;-40
2023/03/04 03:46:58;;;;;;;35.00;24.50;;;2.40;57.10;;;;;;5017990;28;20171;-42
2023/03/04 03:49:24;;;;;;;29.50;22.33;;;2.40;56.70;;;;;;5017495;28;20186;-42
2023/03/04 03:51:50;;;;;;;34.87;23.37;;;2.40;62.90;;;;;;5017087;28;20175;-41
2023/03/04 03:54:15;;;;;;;34.20;24.93;;;2.40;74.50;;;;;;5016531;28;20241;-43
2023/03/04 03:56:41;;;;;;;33.20;22.87;;;2.30;81.00;;;;;;5017789;28;20542;-42
2023/03/04 03:59:07;;;;;;;31.63;23.23;;;2.30;90.30;;;;;;5016627;28;20210;-40
2023/03/04 04:01:33;;;;;;;30.07;21.40;;;2.30;99.90;;;;;;5017079;28;20273;-42
2023/03/04 04:03:59;;;;;;;29.40;22.17;;;2.30;94.50;;;;;;5017217;28;20194;-41
2023/03/04 04:06:26;;;;;;;27.90;21.57;;;2.30;98.30;;;;;;5017621;28;20415;-42
2023/03/04 04:08:53;;;;;;;29.50;21.50;;;2.20;99.90;;;;;;5017597;28;20457;-42
2023/03/04 04:11:19;;;;;;;33.40;23.07;;;2.20;99.90;;;;;;5017857;28;20433;-42
2023/03/04 04:13:44;;;;;;;31.43;21.50;;;2.20;99.90;;;;;;5018052;28;20222;-41
2023/03/04 04:16:10;;;;;;;31.20;21.90;;;2.20;99.90;;;;;;5017613;28;20265;-41
2023/03/04 04:18:36;;;;;;;32.30;23.63;;;2.20;99.90;;;;;;5018052;28;20187;-42
2023/03/04 04:21:03;;;;;;;30.23;21.47;;;2.10;99.90;;;;;;5017756;28;20608;-42
2023/03/04 04:23:28;;;;;;;34.30;23.50;;;2.10;99.90;;;;;;5018085;28;20422;-42
2023/03/04 04:25:54;;;;;;;31.20;22.30;;;2.10;99.90;;;;;;5017542;28;20425;-42
2023/03/04 04:28:20;;;;;;;26.50;19.97;;;2.10;99.90;;;;;;5016191;28;20183;-42
2023/03/04 04:30:46;;;;;;;26.40;20.10;;;2.00;99.90;;;;;;5017770;28;20455;-42
2023/03/04 04:33:12;;;;;;;25.60;20.03;;;2.00;99.90;;;;;;5017293;28;20899;-42
2023/03/04 04:35:38;;;;;;;26.07;19.90;;;2.00;99.90;;;;;;5016864;28;20178;-42
2023/03/04 04:38:04;;;;;;;28.30;22.03;;;2.00;99.90;;;;;;5015734;28;20254;-42
2023/03/04 04:40:30;;;;;;;30.50;22.20;;;2.00;99.90;;;;;;5016107;28;20203;-41
2023/03/04 04:42:55;;;;;;;28.70;20.90;;;1.90;99.90;;;;;;5016192;28;20517;-42
2023/03/04 04:45:23;;;;;;;31.90;20.10;;;1.90;99.90;;;;;;5015916;28;20418;-42
2023/03/04 04:47:52;;;;;;;31.87;21.07;;;1.90;99.90;;;;;;5015836;28;20171;-42
2023/03/04 04:50:18;;;;;;;29.13;21.97;;;1.90;99.90;;;;;;5014789;28;20465;-40
2023/03/04 04:52:43;;;;;;;28.20;20.33;;;1.90;99.90;;;;;;5014429;28;20422;-42
2023/03/04 04:55:09;;;;;;;29.97;22.67;;;1.90;99.90;;;;;;5013700;28;20179;-41
2023/03/04 04:57:35;;;;;;;27.37;21.20;;;1.90;99.90;;;;;;5014897;28;20171;-42
2023/03/04 05:00:02;;;;;;;29.87;21.30;;;1.90;99.90;;;;;;5014146;28;20470;-42
2023/03/04 05:02:27;;;;;;;26.23;19.90;;;1.80;99.90;;;;;;5014705;28;20422;-42
2023/03/04 05:04:53;;;;;;;28.63;21.40;;;1.80;99.90;;;;;;5014683;28;20929;-40
2023/03/04 05:07:19;;;;;;;33.37;23.60;;;1.80;99.90;;;;;;5015592;28;20163;-43
2023/03/04 05:09:44;;;;;;;29.00;20.47;;;1.80;99.90;;;;;;5016183;28;20257;-42
2023/03/04 05:12:10;;;;;;;35.53;22.10;;;1.70;99.90;;;;;;5015461;28;20561;-42
2023/03/04 05:14:36;;;;;;;33.30;23.00;;;1.70;99.90;;;;;;5016803;28;20187;-41
2023/03/04 05:17:02;;;;;;;37.47;25.40;;;1.70;99.90;;;;;;5015909;28;20466;-42
2023/03/04 05:19:27;;;;;;;37.93;26.27;;;1.70;99.90;;;;;;5016709;28;20381;-41
2023/03/04 05:21:53;;;;;;;40.17;24.93;;;1.60;99.90;;;;;;5017596;28;20214;-42
2023/03/04 05:24:19;;;;;;;43.67;25.00;;;1.60;99.90;;;;;;5017343;28;20183;-41
2023/03/04 05:26:44;;;;;;;41.30;25.47;;;1.60;99.90;;;;;;5017463;28;20176;-41
2023/03/04 05:29:10;;;;;;;36.83;24.67;;;1.50;99.90;;;;;;5016198;28;20240;-42
2023/03/04 05:31:36;;;;;;;41.40;26.17;;;1.50;99.90;;;;;;5017335;28;20230;-41
2023/03/04 05:34:01;;;;;;;40.50;25.13;;;1.50;99.90;;;;;;5014750;28;20589;-42
2023/03/04 05:36:27;;;;;;;43.33;26.30;;;1.50;99.90;;;;;;5015536;28;20206;-41
2023/03/04 05:38:53;;;;;;;40.80;24.67;;;1.40;99.90;;;;;;5015655;28;20294;-42
2023/03/04 05:41:21;;;;;;;39.97;28.00;;;1.40;99.90;;;;;;5016042;28;20164;-41
2023/03/04 05:43:47;;;;;;;37.97;23.90;;;1.40;99.90;;;;;;5015687;28;20217;-41
2023/03/04 05:46:15;;;;;;;39.40;24.93;;;1.40;99.90;;;;;;5016463;28;20637;-41
2023/03/04 05:48:42;;;;;;;37.40;24.13;;;1.40;99.90;;;;;;5016703;28;20444;-42
2023/03/04 05:51:07;;;;;;;38.00;25.37;;;1.30;99.90;;;;;;5017059;28;20432;-42
2023/03/04 05:53:35;;;;;;;35.87;22.90;;;1.30;99.90;;;;;;5017069;28;20430;-41
2023/03/04 05:56:07;;;;;;;35.20;24.27;;;1.30;99.90;;;;;;5016721;28;20168;-41
2023/03/04 05:58:32;;;;;;;32.63;22.70;;;1.30;99.90;;;;;;5015334;28;20511;-42
2023/03/04 06:01:02;;;;;;;32.53;22.17;;;1.30;99.90;;;;;;5014179;28;20863;-42
2023/03/04 06:03:28;;;;;;;34.43;23.83;;;1.30;99.90;;;;;;5014346;28;20504;-43
2023/03/04 06:06:13;;;;;;;33.33;22.53;;;1.30;99.90;;;;;;5013326;28;20535;-42
2023/03/04 06:08:39;;;;;;;35.73;24.40;;;1.30;99.90;;;;;;5017813;28;20429;-41
2023/03/04 06:11:05;;;;;;;34.17;22.60;;;1.30;99.90;;;;;;5018068;28;20968;-41
2023/03/04 06:13:31;;;;;;;33.97;22.60;;;1.20;99.90;;;;;;5016593;28;20403;-40
2023/03/04 06:15:57;;;;;;;34.53;22.50;;;1.20;99.90;;;;;;5017979;28;20425;-41
2023/03/04 06:18:25;;;;;;;28.40;21.73;;;1.20;99.90;;;;;;5018551;28;20573;-41
2023/03/04 06:20:53;;;;;;;30.50;21.40;;;1.20;99.90;;;;;;5018723;28;20667;-41
2023/03/04 06:23:19;;;;;;;33.40;23.60;;;1.30;99.90;;;;;;5015263;28;20442;-40
2023/03/04 06:25:45;;;;;;;31.90;22.63;;;1.30;99.90;;;;;;5016229;28;20696;-43
2023/03/04 06:28:10;;;;;;;30.97;22.27;;;1.30;99.90;;;;;;5016746;28;20179;-43
2023/03/04 06:30:36;;;;;;;31.87;24.07;;;1.30;99.90;;;;;;5017242;28;20286;-42
2023/03/04 06:33:01;;;;;;;31.40;23.23;;;1.40;99.90;;;;;;5017878;28;20461;-41
2023/03/04 06:35:27;;;;;;;33.23;22.10;;;1.40;99.90;;;;;;5016597;28;20529;-41
2023/03/04 06:37:53;;;;;;;30.20;21.30;;;1.50;99.90;;;;;;5017911;28;20175;-41
2023/03/04 06:40:18;;;;;;;33.67;23.03;;;1.60;99.90;;;;;;5016826;28;20206;-41
2023/03/04 06:42:44;;;;;;;31.90;23.60;;;1.70;99.90;;;;;;5017385;28;20167;-43
2023/03/04 06:45:10;;;;;;;33.33;22.73;;;1.80;99.90;;;;;;5017214;28;20443;-41
2023/03/04 06:47:36;;;;;;;32.20;23.90;;;2.00;99.90;;;;;;5016949;28;20186;-41
2023/03/04 06:50:03;;;;;;;32.20;23.17;;;2.10;99.90;;;;;;5016351;28;20422;-42
2023/03/04 06:52:28;;;;;;;33.43;23.20;;;2.20;98.30;;;;;;5016817;28;20175;-44
2023/03/04 06:54:54;;;;;;;33.90;23.00;;;2.30;88.50;;;;;;5016121;28;20448;-42
2023/03/04 06:57:20;;;;;;;34.27;25.70;;;2.40;82.10;;;;;;5017347;28;20179;-42
2023/03/04 06:59:45;;;;;;;32.40;22.87;;;2.50;80.00;;;;;;5017735;28;20207;-42
2023/03/04 07:02:12;;;;;;;33.23;22.30;;;2.60;93.40;;;;;;5017463;28;20167;-43
2023/03/04 07:04:38;;;;;;;29.67;22.40;;;2.70;72.20;;;;;;5016185;28;20546;-48
2023/03/04 07:07:03;;;;;;;33.37;24.37;;;2.80;73.50;;;;;;5016764;28;20417;-42
2023/03/04 07:09:29;;;;;;;34.90;23.00;;;2.90;74.80;;;;;;5015222;28;20474;-41
2023/03/04 07:11:55;;;;;;;34.60;24.60;;;3.00;93.10;;;;;;5014840;28;20194;-43
2023/03/04 07:14:20;;;;;;;35.87;24.67;;;3.00;99.90;;;;;;5013760;28;20269;-42
2023/03/04 07:16:46;;;;;;;39.50;29.83;;;3.20;99.90;;;;;;5016311;28;20186;-43
2023/03/04 07:19:12;;;;;;;37.33;28.20;;;3.20;99.90;;;;;;5015879;28;20314;-42
2023/03/04 07:21:37;;;;;;;34.50;24.50;;;3.30;99.90;;;;;;5016315;28;20238;-41
2023/03/04 07:24:03;;;;;;;31.60;23.03;;;3.40;99.90;;;;;;5017723;28;20309;-41
2023/03/04 07:26:29;;;;;;;33.47;23.20;;;3.40;99.90;;;;;;5030377;28;20257;-45
2023/03/04 07:28:57;;;;;;;32.73;23.00;;;3.50;99.90;;;;;;5034647;28;20479;-42
2023/03/04 07:31:28;;;;;;;29.40;21.60;;;3.60;99.90;;;;;;5033383;28;20217;-41
2023/03/04 07:33:59;;;;;;;28.30;20.20;;;3.70;99.90;;;;;;5032085;28;20763;-42
2023/03/04 07:36:25;;;;;;;31.50;22.03;;;3.80;1.00;;;;;;5034841;28;20434;-42
2023/03/04 07:38:53;;;;;;;29.03;20.83;;;3.80;1.00;;;;;;5032701;28;20429;-43
2023/03/04 07:41:19;;;;;;;27.70;20.67;;;3.90;1.00;;;;;;5033327;28;20416;-41
2023/03/04 07:43:45;;;;;;;31.00;22.07;;;3.90;1.00;;;;;;5037026;28;20597;-41
2023/03/04 07:46:10;;;;;;;26.13;20.07;;;4.00;1.00;;;;;;5038033;28;20765;-45
2023/03/04 07:48:36;;;;;;;30.43;22.53;;;4.00;1.00;;;;;;5039135;28;20541;-41
2023/03/04 07:51:04;;;;;;;29.70;20.20;;;4.10;1.00;;;;;;5039003;28;20194;-41
2023/03/04 07:53:31;;;;;;;29.37;20.23;;;4.10;1.00;;;;;;5038363;28;20190;-42
2023/03/04 07:55:56;;;;;;;26.70;19.30;;;4.10;1.00;;;;;;5037332;28;20409;-41
2023/03/04 07:58:22;;;;;;;32.03;21.30;;;4.20;1.00;;;;;;5034873;28;20433;-42
2023/03/04 08:00:48;;;;;;;30.53;19.37;;;4.20;1.00;;;;;;5037604;28;20213;-41
2023/03/04 08:03:13;;;;;;;29.83;20.30;;;4.30;1.00;;;;;;5037044;28;20178;-41
2023/03/04 08:05:39;;;;;;;31.93;20.30;;;4.40;1.00;;;;;;5036506;28;20210;-42
2023/03/04 08:08:05;;;;;;;26.70;18.97;;;4.50;99.90;;;;;;5035133;28;20197;-42
2023/03/04 08:10:30;;;;;;;26.20;19.73;;;4.60;99.90;;;;;;5032634;28;20185;-42
2023/03/04 08:12:56;;;;;;;24.90;18.33;;;4.60;99.90;;;;;;5033980;28;21235;-42
2023/03/04 08:15:21;;;;;;;28.60;21.50;;;4.70;99.90;;;;;;5016837;28;20278;-41
2023/03/04 08:17:47;;;;;;;23.80;18.50;;;4.60;99.90;;;;;;5031140;28;20233;-40
2023/03/04 08:20:13;;;;;;;24.73;18.37;;;4.60;99.90;;;;;;5032601;28;20237;-42
2023/03/04 08:22:38;;;;;;;24.57;18.13;;;4.60;99.90;;;;;;5033423;28;20449;-42
2023/03/04 08:25:05;;;;;;;23.67;18.13;;;4.50;99.90;;;;;;5034249;28;20265;-42
2023/03/04 08:27:31;;;;;;;23.97;16.67;;;4.50;99.90;;;;;;5034519;28;20191;-41
2023/03/04 08:29:56;;;;;;;23.40;18.20;;;4.60;99.90;;;;;;5034224;28;20779;-42
2023/03/04 08:32:22;;;;;;;24.57;17.20;;;4.60;99.90;;;;;;5034156;28;20480;-43
2023/03/04 08:34:48;;;;;;;21.23;16.20;;;4.60;99.90;;;;;;5035725;28;20258;-41
2023/03/04 08:37:13;;;;;;;23.30;16.80;;;4.70;99.90;;;;;;5033471;28;20192;-42
2023/03/04 08:39:39;;;;;;;20.40;15.40;;;4.70;99.90;;;;;;5032093;28;20210;-42
2023/03/04 08:42:05;;;;;;;23.80;16.60;;;4.70;99.90;;;;;;5032196;28;20285;-42
2023/03/04 08:44:30;;;;;;;22.43;17.60;;;4.80;99.90;;;;;;5032463;28;20171;-41
2023/03/04 08:46:56;;;;;;;22.50;16.97;;;4.80;99.90;;;;;;5032410;28;20163;-43
2023/03/04 08:49:22;;;;;;;23.50;17.73;;;4.90;99.90;;;;;;5033809;28;20187;-42
2023/03/04 08:51:47;;;;;;;26.40;19.13;;;4.90;99.90;;;;;;5033684;28;20221;-42
2023/03/04 08:54:13;;;;;;;26.37;19.53;;;4.90;99.90;;;;;;5033065;28;20194;-41
2023/03/04 08:56:41;;;;;;;27.27;19.60;;;4.90;99.90;;;;;;5033907;28;20174;-42
2023/03/04 08:59:06;;;;;;;24.53;18.20;;;4.90;99.90;;;;;;5035316;28;20202;-42
2023/03/04 09:01:32;;;;;;;26.37;20.10;;;4.90;99.90;;;;;;5034580;28;20778;-41
2023/03/04 09:03:57;;;;;;;28.50;19.90;;;4.90;99.90;;;;;;5036591;28;20191;-43
2023/03/04 09:06:23;;;;;;;28.37;20.57;;;4.80;99.90;;;;;;5035338;28;20183;-43
2023/03/04 09:08:49;;;;;;;27.13;20.77;;;4.90;99.90;;;;;;5031805;28;20178;-42
2023/03/04 09:11:15;;;;;;;29.03;21.00;;;4.90;99.90;;;;;;5032875;28;20174;-42
2023/03/04 09:13:41;;;;;;;26.80;20.40;;;4.90;99.90;;;;;;5031846;28;20179;-41
2023/03/04 09:16:11;;;;;;;28.60;20.37;;;4.90;99.90;;;;;;5034365;28;20531;-41
2023/03/04 09:18:38;;;;;;;29.70;20.53;;;4.90;99.90;;;;;;5033252;28;20273;-42
2023/03/04 09:21:04;;;;;;;23.27;17.93;;;5.00;99.90;;;;;;5034006;28;20707;-42
2023/03/04 09:23:30;;;;;;;25.27;19.07;;;5.00;99.90;;;;;;5035571;28;20770;-43
2023/03/04 09:25:55;;;;;;;26.80;19.63;;;5.10;99.90;;;;;;5034864;28;20417;-42
2023/03/04 09:28:21;;;;;;;26.10;19.37;;;5.10;99.90;;;;;;5033983;28;20237;-43
2023/03/04 09:30:47;;;;;;;24.37;19.33;;;5.20;99.90;;;;;;5033509;28;20296;-42
2023/03/04 09:33:13;;;;;;;26.07;20.07;;;5.20;99.90;;;;;;5031584;28;20222;-40
2023/03/04 09:35:39;;;;;;;24.67;17.73;;;5.20;98.90;;;;;;5031669;28;20218;-42
2023/03/04 09:38:05;;;;;;;26.40;19.70;;;5.20;88.00;;;;;;5033686;28;20445;-42
2023/03/04 09:40:47;;;;;;;24.83;18.00;;;5.20;70.10;;;;;;5029836;28;20552;-42
2023/03/04 09:43:28;;;;;;;24.73;17.97;;;5.30;52.80;;;;;;5036352;28;20906;-42
2023/03/04 09:45:56;;;;;;;22.47;17.50;;;5.30;43.60;;;;;;5018420;28;20421;-41
2023/03/04 09:48:25;;;;;;;22.43;17.73;;;5.30;40.00;;;;;;5018308;28;20820;-42
2023/03/04 09:51:17;;;;;;;24.37;17.53;;;5.40;32.20;;;;;;5016650;28;20413;-41
2023/03/04 09:54:08;;;;;;;23.30;18.40;;;5.50;21.00;;;;;;5016822;28;20437;-41
2023/03/04 09:56:36;;;;;;;25.33;18.33;;;5.60;8.00;;;;;;5016881;28;20414;-40
2023/03/04 09:59:16;;;;;;;25.77;19.00;;;5.70;1.00;;;;;;5016517;28;20433;-43
2023/03/04 10:01:49;;;;;;;24.03;18.07;;;5.80;1.00;;;;;;5014920;28;20810;-40
2023/03/04 10:04:35;;;;;;;24.27;19.33;;;6.00;1.00;;;;;;5015185;28;20422;-40
2023/03/04 10:07:02;;;;;;;26.60;21.23;;;6.20;1.00;;;;;;5014131;28;20952;-41
2023/03/04 10:10:01;;;;;;;28.17;20.30;;;6.40;1.00;;;;;;5017139;28;20452;-40
2023/03/04 10:12:30;;;;;;;24.20;18.70;;;6.70;1.00;;;;;;4989931;28;20866;-42
2023/03/04 10:15:31;;;;;;;27.20;19.93;;;6.90;1.00;;;;;;5016345;28;20442;-42
2023/03/04 10:18:03;;;;;;;28.00;19.67;;;7.00;1.00;;;;;;5010807;28;20539;-40
2023/03/04 10:20:43;;;;;;;27.00;22.60;;;7.20;1.00;;;;;;5032118;28;20871;-41
2023/03/04 10:23:13;;;;;;;23.27;20.53;;;7.30;1.00;;;;;;5034505;28;20421;-42
2023/03/04 10:25:45;;;;;;;26.60;21.53;;;7.40;1.00;;;;;;5036759;28;20502;-42
2023/03/04 10:28:15;;;;;;;24.10;21.03;;;7.50;1.00;;;;;;5033555;28;20508;-40
2023/03/04 10:30:47;;;;;;;25.23;19.80;;;7.60;1.00;;;;;;5033924;28;20621;-40
2023/03/04 10:33:18;;;;;;;28.30;22.17;;;7.70;1.00;;;;;;5032556;28;20468;-44
2023/03/04 10:35:52;;;;;;;26.43;22.20;;;7.80;1.00;;;;;;5034185;28;20449;-39
2023/03/04 10:38:20;;;;;;;29.63;23.03;;;8.00;1.00;;;;;;5035144;28;20850;-43
2023/03/04 10:40:46;;;;;;;28.83;23.33;;;8.20;1.00;;;;;;5035746;28;21068;-41
2023/03/04 10:43:14;;;;;;;28.17;24.20;;;8.30;1.00;;;;;;5034782;28;20464;-42
2023/03/04 10:45:41;;;;;;;29.60;25.40;;;8.50;1.00;;;;;;5035489;28;20236;-41
2023/03/04 10:48:18;;;;;;;29.30;23.07;;;8.70;1.00;;;;;;5035742;28;20724;-41
2023/03/04 10:50:44;;;;;;;25.90;22.60;;;9.00;1.00;;;;;;5034905;28;20443;-41
2023/03/04 10:53:26;;;;;;;30.30;23.83;;;9.30;1.00;;;;;;5033025;28;20802;-42
2023/03/04 10:55:52;;;;;;;32.77;25.53;;;9.60;1.00;;;;;;5032870;28;20373;-41
2023/03/04 10:58:18;;;;;;;30.83;25.13;;;9.90;1.00;;;;;;5032517;28;20508;-41
2023/03/04 11:00:43;;;;;;;34.90;27.77;;;10.50;1.00;;;;;;5031084;28;20313;-43
2023/03/04 11:03:26;;;;;;;33.57;25.57;;;11.10;1.00;;;;;;5031826;28;20482;-40
2023/03/04 11:06:04;;;;;;;30.50;25.67;;;11.60;1.00;;;;;;5034069;28;20228;-43
2023/03/04 11:08:30;;;;;;;33.90;28.00;;;11.90;1.00;;;;;;5034565;28;20444;-41
2023/03/04 11:10:56;;;;;;;32.37;26.20;;;11.80;1.00;;;;;;5033898;28;20865;-41
2023/03/04 11:13:24;;;;;;;38.93;29.30;;;11.80;1.00;;;;;;5033436;28;20242;-43
2023/03/04 11:15:55;;;;;;;33.07;27.90;;;11.80;1.00;;;;;;5032481;28;20189;-41
2023/03/04 11:18:33;;;;;;;35.30;26.80;;;11.80;1.00;;;;;;5032619;28;20441;-41
2023/03/04 11:21:00;;;;;;;32.17;28.13;;;11.80;1.00;;;;;;5031817;28;20548;-41
2023/03/04 11:23:38;;;;;;;29.80;26.20;;;11.90;1.00;;;;;;5031432;28;20449;-43
2023/03/04 11:26:10;;;;;;;34.63;28.10;;;12.00;1.00;;;;;;5032762;28;20436;-41
2023/03/04 11:28:59;;;;;;;34.90;29.30;;;12.10;1.00;;;;;;5031101;28;20417;-41
2023/03/04 11:31:31;;;;;;;30.97;26.03;;;12.10;1.00;;;;;;5034446;28;20428;-41
2023/03/04 11:34:05;;;;;;;39.03;30.40;;;12.20;99.90;;;;;;5035588;28;20439;-42
2023/03/04 11:36:35;;;;;;;34.80;28.80;;;12.20;99.90;;;;;;5036266;28;20680;-41
2023/03/04 11:39:07;;;;;;;29.80;25.77;;;12.20;99.90;;;;;;5034866;28;20459;-43
2023/03/04 11:41:50;;;;;;;36.60;28.77;;;12.40;99.90;;;;;;5034066;28;20448;-41
2023/03/04 11:44:16;;;;;;;29.40;26.17;;;13.00;99.90;;;;;;5033341;28;20421;-41
2023/03/04 11:46:48;;;;;;;31.17;27.93;;;13.20;99.90;;;;;;5034463;28;20913;-41
2023/03/04 11:49:51;;;;;;;31.67;27.93;;;13.20;99.90;;;;;;5033083;28;20477;-42
2023/03/04 11:52:51;;;;;;;31.33;26.67;;;13.20;99.90;;;;;;5035425;28;20412;-42
2023/03/04 11:55:37;;;;;;;33.23;27.10;;;13.00;99.90;;;;;;5035777;28;20483;-42
2023/03/04 11:58:30;;;;;;;30.53;26.03;;;12.80;99.90;;;;;;5034494;28;20437;-42
2023/03/04 12:01:02;;;;;;;29.87;26.27;;;12.70;99.90;;;;;;5031916;28;20739;-41
2023/03/04 12:03:54;;;;;;;35.43;28.00;;;12.50;99.90;;;;;;5033165;28;20429;-49
2023/03/04 12:06:32;;;;;;;31.90;27.77;;;12.40;99.90;;;;;;5033042;28;20516;-42
2023/03/04 12:09:20;;;;;;;30.47;27.03;;;12.30;99.90;;;;;;5032235;28;20429;-41
2023/03/04 12:12:10;;;;;;;31.33;27.60;;;12.20;99.90;;;;;;5031073;28;20415;-41
2023/03/04 12:14:43;;;;;;;30.53;26.00;;;12.20;99.90;;;;;;5030697;28;20599;-41
2023/03/04 12:17:34;;;;;;;31.60;28.00;;;12.30;99.90;;;;;;5031961;28;20661;-43
2023/03/04 12:20:06;;;;;;;31.20;27.17;;;12.30;99.90;;;;;;5033003;28;20481;-42
2023/03/04 12:22:43;;;;;;;28.73;25.63;;;12.40;99.90;;;;;;5031998;28;20504;-42
2023/03/04 12:25:31;;;;;;;29.47;26.27;;;12.60;99.90;;;;;;5030309;28;20413;-41
2023/03/04 12:28:09;;;;;;;28.83;25.43;;;12.80;99.90;;;;;;5032843;28;20440;-42
2023/03/04 12:30:48;;;;;;;30.77;27.47;;;13.00;99.90;;;;;;5031273;28;20475;-42
2023/03/04 12:33:16;;;;;;;29.83;26.53;;;13.00;99.90;;;;;;5034336;28;20429;-43
2023/03/04 12:36:06;;;;;;;31.00;25.77;;;13.20;99.90;;;;;;5035395;28;20645;-43
2023/03/04 12:38:48;;;;;;;32.70;29.20;;;13.40;99.90;;;;;;5032663;28;20700;-43
2023/03/04 12:41:33;;;;;;;29.83;26.57;;;13.70;99.90;;;;;;5029829;28;20871;-42
2023/03/04 12:44:05;;;;;;;28.93;24.40;;;13.90;99.90;;;;;;5030222;28;20444;-42
2023/03/04 12:47:10;;;;;;;28.80;25.63;;;13.90;99.90;;;;;;5032637;28;20416;-42
2023/03/04 12:49:45;;;;;;;24.73;22.13;;;13.90;99.90;;;;;;5032545;28;20901;-42